Terminal Aerodrome Forecast
Issued by NWS Charleston, WV

Current Version | Previous Version | Text Only | Print | Product List | Glossary Off
Versions: 1 2 3 4 5 6 7 8 9 10 11 12 13 14 15 16 17 18 19 20 21 22

000
FTUS41 KRLX 191500 AAA
TAFEKN
TAF AMD
KEKN 191505Z 1915/2012 11009G18KT P6SM OVC100
     FM191800 15011G23KT P6SM BKN060
     FM192100 14013G26KT P6SM -SHRA OVC035
     FM200200 15014G28KT 5SM SHRA BR OVC025
     FM200500 16009G16KT 4SM SHRA BR OVC035
     FM200600 16008KT 4SM BR BKN040
     FM200800 19005KT 4SM BR BKN025
     FM201100 VRB03KT 3SM BR BKN015=

USA.gov is the U.S. government's official web portal to all federal, state and local government web resources and services.